Time;durP1;ratioP1;P1;durP2;ratioP2;P2;SDS_P1;SDS_P2;PMS_P1;PMS_P2;Temp;Humidity;BMP_temperature;BMP_pressure;BME280_temperature;BME280_humidity;BME280_pressure;Samples;Min_cycle;Max_cycle;Signal;HPM_P1;HPM_P2
2022/12/14 04:54:13;;;;;;;42.75;18.08;;;;;;;-3.05;100.00;100088.75;6174773;27;20207;-82
2022/12/14 04:57:20;;;;;;;41.53;17.73;;;;;;;-3.04;100.00;100080.78;5349139;33;33037;-83
2022/12/14 05:00:23;;;;;;;36.78;15.73;;;;;;;-3.06;100.00;100073.91;5357178;33;32459;-82
2022/12/14 05:03:33;;;;;;;33.35;14.48;;;;;;;-3.06;100.00;100066.00;5350167;33;33104;-82
2022/12/14 05:07:20;;;;;;;28.95;14.30;;;;;;;-3.14;100.00;100068.28;5363719;33;34035;-83
2022/12/14 05:10:45;;;;;;;34.30;15.65;;;;;;;-3.06;100.00;100051.03;5365849;33;33868;-82
2022/12/14 05:13:49;;;;;;;31.92;14.45;;;;;;;-3.04;100.00;100053.56;5347476;33;32230;-83
2022/12/14 05:16:52;;;;;;;33.10;15.02;;;;;;;-3.07;100.00;100057.28;5361622;33;33921;-83
2022/12/14 05:19:55;;;;;;;33.25;15.07;;;;;;;-2.99;100.00;100070.75;5361396;33;33856;-83
2022/12/14 05:22:58;;;;;;;30.55;14.18;;;;;;;-2.98;100.00;100080.38;5348145;33;33113;-83
2022/12/14 05:26:00;;;;;;;31.05;15.32;;;;;;;-2.97;100.00;100068.88;5361518;33;34710;-87
2022/12/14 05:29:04;;;;;;;35.58;16.00;;;;;;;-2.92;100.00;100065.13;5361240;33;34647;-87
2022/12/14 05:32:09;;;;;;;37.80;17.52;;;;;;;-2.96;100.00;100056.56;5347838;33;32271;-87
2022/12/14 05:35:13;;;;;;;31.90;16.35;;;;;;;-2.92;100.00;100044.88;5361671;33;33988;-83
2022/12/14 05:38:16;;;;;;;37.92;17.25;;;;;;;-3.02;100.00;100041.16;5362182;33;33350;-83
2022/12/14 05:41:19;;;;;;;33.55;16.08;;;;;;;-3.00;100.00;100031.38;5363007;33;34205;-83
2022/12/14 05:44:21;;;;;;;31.77;15.80;;;;;;;-3.03;100.00;100047.37;5361772;33;34949;-83
2022/12/14 05:47:24;;;;;;;33.95;15.85;;;;;;;-2.89;100.00;100039.41;5362811;33;34761;-83
2022/12/14 05:50:27;;;;;;;31.48;14.93;;;;;;;-2.94;100.00;100046.78;5363087;33;34759;-83
2022/12/14 05:53:30;;;;;;;31.87;14.43;;;;;;;-2.97;100.00;100044.34;5349817;33;32208;-83
2022/12/14 05:56:35;;;;;;;27.23;14.32;;;;;;;-2.92;100.00;100057.22;5364492;33;34048;-83
2022/12/14 05:59:38;;;;;;;31.30;14.75;;;;;;;-2.97;100.00;100058.34;5365132;33;33689;-83
2022/12/14 06:02:41;;;;;;;27.08;14.07;;;;;;;-2.98;100.00;100035.59;5370249;33;34313;-83
2022/12/14 06:05:43;;;;;;;29.27;13.52;;;;;;;-2.94;100.00;100032.75;5357051;33;33607;-83
2022/12/14 06:08:47;;;;;;;26.95;13.43;;;;;;;-3.04;100.00;100028.09;5348056;33;32280;-83
2022/12/14 06:11:50;;;;;;;31.15;13.10;;;;;;;-3.04;100.00;100017.56;5347738;33;32290;-83
2022/12/14 06:14:52;;;;;;;32.88;13.90;;;;;;;-2.99;100.00;100002.28;5360701;33;34047;-83
2022/12/14 06:17:55;;;;;;;27.98;12.95;;;;;;;-3.04;100.00;100011.44;5348045;33;34506;-83
2022/12/14 06:20:58;;;;;;;27.98;13.27;;;;;;;-3.07;100.00;100019.53;5342408;33;34783;-83
2022/12/14 06:24:02;;;;;;;24.45;12.27;;;;;;;-3.05;100.00;100013.22;5359036;33;33179;-83
2022/12/14 06:27:05;;;;;;;28.38;12.18;;;;;;;-3.03;100.00;100019.25;5346736;33;32572;-83
2022/12/14 06:30:08;;;;;;;27.98;12.18;;;;;;;-3.02;100.00;100020.09;5360851;33;34910;-83
2022/12/14 06:33:11;;;;;;;26.95;13.68;;;;;;;-2.97;100.00;100025.91;5354966;33;33379;-83
2022/12/14 06:36:23;;;;;;;29.15;13.85;;;;;;;-2.92;100.00;100026.44;5347979;33;34098;-83
2022/12/14 06:39:26;;;;;;;23.23;12.52;;;;;;;-2.90;100.00;100013.16;5360720;33;34289;-83
2022/12/14 06:42:28;;;;;;;25.83;12.57;;;;;;;-2.96;100.00;100015.25;5350568;33;34016;-83
2022/12/14 06:45:31;;;;;;;21.77;11.68;;;;;;;-2.84;100.00;100007.50;5337304;33;33109;-83
2022/12/14 06:48:34;;;;;;;27.80;13.73;;;;;;;-2.85;100.00;100006.66;5345093;33;32556;-83
2022/12/14 06:51:39;;;;;;;26.17;13.60;;;;;;;-2.81;100.00;100004.66;5358045;33;33667;-83
2022/12/14 06:54:42;;;;;;;24.27;11.93;;;;;;;-2.79;100.00;100008.03;5340652;33;33609;-83
2022/12/14 06:57:45;;;;;;;24.25;12.55;;;;;;;-2.55;100.00;100002.91;5351628;33;33876;-82
2022/12/14 07:00:47;;;;;;;23.25;11.73;;;;;;;-2.61;100.00;99987.53;5362942;33;175507;-82
2022/12/14 07:03:55;;;;;;;28.23;12.13;;;;;;;-2.61;100.00;99998.06;5368642;33;34210;-83
2022/12/14 07:06:58;;;;;;;24.10;13.43;;;;;;;-2.84;100.00;99996.97;5373653;33;34534;-82
2022/12/14 07:10:03;;;;;;;24.60;12.45;;;;;;;-2.78;100.00;99996.53;5361854;33;34204;-83
2022/12/14 07:13:06;;;;;;;24.37;11.43;;;;;;;-2.77;100.00;99999.09;5360095;33;34274;-83
2022/12/14 07:16:14;;;;;;;25.70;11.90;;;;;;;-2.70;100.00;100003.94;5349018;33;34569;-83
2022/12/14 07:19:17;;;;;;;22.65;12.40;;;;;;;-2.71;100.00;99981.19;5348605;33;34604;-83
2022/12/14 07:22:19;;;;;;;26.35;13.32;;;;;;;-2.65;100.00;99970.25;5342353;33;35153;-83
2022/12/14 07:25:22;;;;;;;23.70;12.77;;;;;;;-2.81;100.00;99962.50;5344178;33;33875;-82
2022/12/14 07:28:26;;;;;;;26.83;12.50;;;;;;;-2.60;100.00;99973.41;5336385;33;32452;-83
2022/12/14 07:31:29;;;;;;;23.12;11.95;;;;;;;-2.59;100.00;99972.47;5337014;33;32465;-83
2022/12/14 07:34:32;;;;;;;26.50;13.50;;;;;;;-2.59;100.00;99983.00;5344542;33;32386;-83
2022/12/14 07:37:35;;;;;;;27.95;13.15;;;;;;;-2.56;100.00;99980.16;5374409;33;35551;-83
2022/12/14 07:40:37;;;;;;;25.58;13.07;;;;;;;-2.47;100.00;99979.53;5353042;33;33767;-87
2022/12/14 07:43:41;;;;;;;22.70;11.27;;;;;;;-2.45;100.00;99974.16;5364106;33;34043;-87
2022/12/14 07:46:44;;;;;;;25.92;12.60;;;;;;;-2.40;100.00;99986.09;5346616;33;32559;-83
2022/12/14 07:49:47;;;;;;;23.30;11.88;;;;;;;-2.29;100.00;99995.88;5340216;33;32186;-83
2022/12/14 07:52:50;;;;;;;26.10;12.95;;;;;;;-2.34;100.00;99995.34;5343825;33;32605;-83
2022/12/14 07:55:53;;;;;;;28.52;13.05;;;;;;;-2.31;100.00;100013.56;5357595;33;33577;-84
2022/12/14 07:58:57;;;;;;;24.10;11.10;;;;;;;-2.39;100.00;100019.38;5360353;33;33612;-83
2022/12/14 08:02:00;;;;;;;23.73;11.63;;;;;;;-2.27;100.00;100007.16;5350406;33;34642;-83
2022/12/14 08:05:04;;;;;;;25.12;12.07;;;;;;;-2.29;100.00;100016.97;5355418;33;33865;-83
2022/12/14 08:08:13;;;;;;;23.70;11.52;;;;;;;-2.20;100.00;100008.41;5356676;33;34211;-83
2022/12/14 08:11:17;;;;;;;24.00;12.23;;;;;;;-2.26;100.00;100003.56;5342424;33;31611;-83
2022/12/14 08:14:19;;;;;;;23.83;11.07;;;;;;;-1.98;100.00;100001.69;5359345;33;33624;-83
2022/12/14 08:17:22;;;;;;;33.03;11.90;;;;;;;-2.01;100.00;100008.00;5343990;33;34884;-83
2022/12/14 08:20:25;;;;;;;22.27;11.02;;;;;;;-2.07;100.00;100006.63;5357742;33;34146;-83
2022/12/14 08:23:28;;;;;;;21.90;11.18;;;;;;;-2.03;100.00;99999.34;5354846;33;34132;-83
2022/12/14 08:26:31;;;;;;;24.90;10.80;;;;;;;-2.07;100.00;100004.00;5350588;33;33879;-83
2022/12/14 08:29:37;;;;;;;25.45;11.02;;;;;;;-2.19;100.00;99986.41;5360170;33;33933;-83
2022/12/14 08:32:40;;;;;;;25.35;12.23;;;;;;;-1.98;100.00;100002.50;5347499;33;33830;-83
2022/12/14 08:35:43;;;;;;;30.08;11.77;;;;;;;-2.03;100.00;100009.06;5344718;33;32617;-83
2022/12/14 08:39:01;;;;;;;22.35;10.80;;;;;;;-2.10;100.00;100012.12;5367208;33;34613;-83
2022/12/14 08:42:04;;;;;;;20.65;10.55;;;;;;;-2.06;100.00;100010.94;5358245;33;34066;-83
2022/12/14 08:45:07;;;;;;;23.38;10.38;;;;;;;-2.04;100.00;100008.22;5353911;33;32308;-83
2022/12/14 08:48:10;;;;;;;23.30;11.88;;;;;;;-1.87;100.00;99993.84;5352634;33;35442;-83
2022/12/14 08:51:13;;;;;;;24.70;11.75;;;;;;;-1.98;100.00;99989.31;5357043;33;33869;-83
2022/12/14 08:54:17;;;;;;;21.60;11.52;;;;;;;-2.04;100.00;99983.66;5351367;33;32440;-83
2022/12/14 08:57:20;;;;;;;18.92;9.77;;;;;;;-2.00;100.00;99969.28;5351133;33;34718;-83
2022/12/14 09:00:23;;;;;;;21.55;11.73;;;;;;;-2.09;100.00;99950.50;5355099;33;34293;-82
2022/12/14 09:03:25;;;;;;;21.98;10.70;;;;;;;-1.99;100.00;99942.81;5359431;33;34356;-82
2022/12/14 09:06:29;;;;;;;23.90;11.70;;;;;;;-2.03;100.00;99938.69;5362431;33;34700;-83
2022/12/14 09:09:34;;;;;;;27.37;12.93;;;;;;;-1.96;100.00;99942.59;5355733;33;34157;-82
2022/12/14 09:12:38;;;;;;;24.02;11.68;;;;;;;-1.92;100.00;99949.31;5354107;33;34007;-82
2022/12/14 09:15:40;;;;;;;28.33;10.85;;;;;;;-1.84;100.00;99951.44;5358950;33;34619;-83
2022/12/14 09:18:45;;;;;;;23.55;11.88;;;;;;;-1.72;100.00;99949.72;5343945;33;33078;-83
2022/12/14 09:21:47;;;;;;;29.50;12.57;;;;;;;-1.63;100.00;99946.41;5356324;33;34132;-82
2022/12/14 09:24:50;;;;;;;25.50;11.98;;;;;;;-1.46;100.00;99951.31;5355394;33;34973;-84
2022/12/14 09:27:53;;;;;;;23.40;11.10;;;;;;;-1.37;100.00;99952.44;5345567;33;32412;-85
2022/12/14 09:30:58;;;;;;;22.98;11.40;;;;;;;-1.48;100.00;99953.19;5360345;33;33861;-84
2022/12/14 09:34:01;;;;;;;23.83;10.90;;;;;;;-1.63;100.00;99947.25;5363782;33;34131;-83
2022/12/14 09:37:06;;;;;;;28.23;14.65;;;;;;;-1.60;100.00;99946.19;5346544;33;33238;-87
2022/12/14 09:40:12;;;;;;;25.50;13.05;;;;;;;-1.58;100.00;99941.59;5344815;33;33726;-88
2022/12/14 09:43:39;;;;;;;29.33;13.43;;;;;;;-1.44;100.00;99935.34;5357161;33;33978;-88
2022/12/14 09:47:01;;;;;;;22.62;11.85;;;;;;;-1.50;100.00;99920.78;5344780;33;33820;-83
2022/12/14 09:50:14;;;;;;;24.15;12.00;;;;;;;-1.43;100.00;99921.19;5355472;33;34861;-84
2022/12/14 09:53:19;;;;;;;25.08;11.02;;;;;;;-1.53;100.00;99910.44;5348296;33;33640;-83
2022/12/14 09:56:22;;;;;;;25.62;12.25;;;;;;;-1.55;100.00;99900.94;5350464;33;33917;-84
2022/12/14 09:59:27;;;;;;;22.30;11.75;;;;;;;-1.50;100.00;99894.37;5355500;33;32289;-84
2022/12/14 10:03:00;;;;;;;23.40;11.32;;;;;;;-1.42;100.00;99892.03;5335048;33;33590;-83
2022/12/14 10:06:27;;;;;;;21.60;10.88;;;;;;;-1.35;100.00;99894.22;5333606;33;32507;-84
2022/12/14 10:10:12;;;;;;;23.08;10.80;;;;;;;-1.19;99.50;99887.69;5342580;33;34282;-84
2022/12/14 10:13:46;;;;;;;24.35;10.40;;;;;;;-1.25;99.75;99892.59;5329467;33;32262;-82
2022/12/14 10:17:05;;;;;;;26.62;11.35;;;;;;;-1.34;99.64;99893.28;5342193;33;35399;-83
2022/12/14 10:20:23;;;;;;;23.20;10.82;;;;;;;-1.43;100.00;99894.81;5346147;33;34812;-83
2022/12/14 10:23:26;;;;;;;23.45;11.27;;;;;;;-1.12;100.00;99895.16;5348329;33;34867;-83
2022/12/14 10:26:37;;;;;;;23.70;11.30;;;;;;;-1.17;100.00;99892.84;5360561;33;34448;-83
2022/12/14 10:29:48;;;;;;;24.05;11.85;;;;;;;-1.12;100.00;99874.84;5360396;33;34021;-83
2022/12/14 10:33:20;;;;;;;24.10;11.43;;;;;;;-1.16;100.00;99873.41;5342095;33;33665;-83
2022/12/14 10:36:43;;;;;;;24.35;11.48;;;;;;;-1.11;99.78;99865.13;5345721;33;33657;-83
2022/12/14 10:39:55;;;;;;;22.27;10.95;;;;;;;-0.93;98.60;99853.19;5355354;33;34553;-83
2022/12/14 10:43:27;;;;;;;23.52;12.07;;;;;;;-1.01;98.82;99840.53;5357845;33;34443;-87
2022/12/14 10:46:45;;;;;;;24.12;11.32;;;;;;;-0.77;97.69;99829.88;5359538;33;33773;-83
2022/12/14 10:49:51;;;;;;;23.90;12.40;;;;;;;-0.81;97.27;99828.44;5345481;33;33623;-83
2022/12/14 10:52:55;;;;;;;24.63;11.77;;;;;;;-0.99;98.01;99822.78;5345993;33;33819;-83
2022/12/14 10:56:03;;;;;;;22.23;11.68;;;;;;;-0.99;99.83;99828.06;5356408;33;34443;-83
2022/12/14 10:59:25;;;;;;;25.42;10.95;;;;;;;-0.85;97.74;99824.34;5352134;33;33969;-83
2022/12/14 11:02:28;;;;;;;23.10;11.10;;;;;;;-0.87;96.91;99830.72;5345556;33;34896;-83
2022/12/14 11:05:43;;;;;;;23.12;11.07;;;;;;;-1.10;97.79;99830.69;5356555;33;34054;-84
2022/12/14 11:08:48;;;;;;;23.67;11.73;;;;;;;-1.05;97.38;99832.94;5354691;33;32196;-83
2022/12/14 11:12:25;;;;;;;23.27;10.98;;;;;;;-1.13;98.31;99819.50;5362177;33;34318;-83
2022/12/14 11:15:32;;;;;;;28.90;12.30;;;;;;;-1.05;99.10;99823.25;5347956;33;34378;-83
2022/12/14 11:18:35;;;;;;;25.08;10.98;;;;;;;-1.03;98.17;99820.47;5353814;33;33997;-83
2022/12/14 11:21:38;;;;;;;25.33;12.20;;;;;;;-1.03;98.19;99818.66;5361058;33;33985;-83
2022/12/14 11:24:46;;;;;;;22.48;11.60;;;;;;;-1.13;95.97;99809.78;5361086;33;34960;-86
2022/12/14 11:27:49;;;;;;;24.98;11.70;;;;;;;-0.97;96.86;99806.78;5340348;33;33620;-84
2022/12/14 11:31:07;;;;;;;21.87;11.60;;;;;;;-0.98;96.35;99798.03;5352839;33;33957;-83
2022/12/14 11:34:33;;;;;;;25.40;12.63;;;;;;;-0.89;96.58;99785.91;5358580;33;34006;-83
2022/12/14 11:37:36;;;;;;;23.25;12.18;;;;;;;-0.84;97.60;99788.22;5355711;33;34908;-83
2022/12/14 11:40:39;;;;;;;27.10;11.88;;;;;;;-0.65;96.76;99777.84;5341086;33;33541;-84
2022/12/14 11:43:41;;;;;;;24.35;11.95;;;;;;;-0.82;96.26;99784.50;5350941;33;34465;-83
2022/12/14 11:46:57;;;;;;;26.37;12.20;;;;;;;-0.84;96.82;99772.34;5369783;33;34060;-83
2022/12/14 11:50:00;;;;;;;24.92;11.40;;;;;;;-0.81;96.67;99764.19;5354932;33;34234;-83
2022/12/14 11:53:09;;;;;;;26.90;11.50;;;;;;;-0.96;96.60;99763.59;5356904;33;34185;-84
2022/12/14 11:56:17;;;;;;;26.60;12.20;;;;;;;-1.10;97.37;99748.78;5347499;33;33803;-84
2022/12/14 11:59:20;;;;;;;27.92;12.98;;;;;;;-0.98;98.98;99747.84;5361573;33;34822;-84
2022/12/14 12:02:29;;;;;;;28.12;13.30;;;;;;;-0.99;97.80;99747.97;5346833;33;33944;-84
2022/12/14 12:05:38;;;;;;;29.75;12.95;;;;;;;-1.00;97.68;99738.34;5347488;33;33920;-84
2022/12/14 12:08:43;;;;;;;28.83;13.40;;;;;;;-1.12;98.39;99741.94;5355184;33;33935;-83
2022/12/14 12:11:46;;;;;;;27.95;12.20;;;;;;;-0.98;97.91;99733.78;5357932;33;34264;-83
2022/12/14 12:14:54;;;;;;;27.27;11.77;;;;;;;-0.83;97.97;99729.94;5359783;33;33954;-83
2022/12/14 12:18:13;;;;;;;25.05;11.88;;;;;;;-0.95;97.63;99726.47;5356076;33;34905;-83
2022/12/14 12:21:18;;;;;;;25.27;11.75;;;;;;;-0.89;98.62;99719.84;5349240;33;33952;-84
2022/12/14 12:24:34;;;;;;;29.42;12.43;;;;;;;-0.96;97.98;99718.66;5347774;33;32765;-84
2022/12/14 12:27:56;;;;;;;28.62;13.18;;;;;;;-0.94;98.40;99722.00;5349133;33;33967;-84
2022/12/14 12:31:06;;;;;;;36.05;15.27;;;;;;;-0.76;98.21;99712.66;5354748;33;34762;-84
2022/12/14 12:34:17;;;;;;;30.65;13.05;;;;;;;-0.66;97.45;99702.16;5342257;33;34215;-85
2022/12/14 12:38:02;;;;;;;25.00;12.60;;;;;;;-0.65;96.49;99700.38;5345518;33;34140;-84
2022/12/14 12:41:20;;;;;;;25.27;11.23;;;;;;;-0.77;96.35;99686.31;5344440;33;33979;-84
2022/12/14 12:44:53;;;;;;;27.73;12.37;;;;;;;-0.84;96.95;99682.50;5347640;33;35356;-84
2022/12/14 12:48:18;;;;;;;20.83;11.38;;;;;;;-0.84;96.86;99680.69;5361504;33;34062;-84
2022/12/14 12:51:26;;;;;;;24.70;11.52;;;;;;;-0.69;96.88;99670.69;5361460;33;33964;-84
2022/12/14 12:54:53;;;;;;;23.30;11.75;;;;;;;-0.87;96.29;99674.81;5352774;33;34314;-89
2022/12/14 12:58:00;;;;;;;27.05;11.93;;;;;;;-0.78;97.16;99674.91;5346659;33;31809;-84
2022/12/14 13:01:29;;;;;;;21.67;11.50;;;;;;;-0.70;96.77;99664.59;5353149;33;33943;-84
2022/12/14 13:04:40;;;;;;;22.30;10.75;;;;;;;-0.58;96.77;99662.75;5345316;33;33740;-84
2022/12/14 13:07:48;;;;;;;23.75;12.68;;;;;;;-0.48;94.57;99662.84;5342061;33;32585;-84
2022/12/14 13:10:54;;;;;;;25.80;12.05;;;;;;;-0.54;94.40;99658.87;5353445;33;34073;-85
2022/12/14 13:14:25;;;;;;;25.75;11.43;;;;;;;-0.55;94.25;99657.22;5353827;33;34776;-84
2022/12/14 13:18:11;;;;;;;22.73;10.73;;;;;;;-0.46;95.06;99653.81;5359878;33;35003;-84
2022/12/14 13:21:45;;;;;;;25.05;13.13;;;;;;;-0.34;93.88;99656.44;5311699;33;34457;-85
2022/12/14 13:24:53;;;;;;;21.80;11.70;;;;;;;-0.40;94.44;99656.94;5352657;33;32568;-84
2022/12/14 13:28:46;;;;;;;30.75;13.48;;;;;;;-0.46;95.56;99647.69;5357310;33;34558;-83
2022/12/14 13:31:56;;;;;;;27.23;11.85;;;;;;;-0.55;94.56;99635.22;5346114;33;34421;-83
2022/12/14 13:35:14;;;;;;;;;;;;;;;-0.64;94.57;99641.22;5349515;33;34580;-83
2022/12/14 13:38:31;;;;;;;22.95;11.57;;;;;;;-0.55;94.93;99624.66;5357058;33;34464;-83
2022/12/14 13:41:41;;;;;;;25.67;12.13;;;;;;;-0.46;94.80;99626.53;5349088;33;33915;-83
2022/12/14 13:44:55;;;;;;;31.30;13.85;;;;;;;-0.49;95.82;99627.63;5347070;33;32785;-84
2022/12/14 13:47:59;;;;;;;37.72;14.63;;;;;;;-0.45;94.10;99625.56;5344780;33;33812;-83
2022/12/14 13:51:04;;;;;;;24.00;12.93;;;;;;;-0.61;94.47;99618.06;5331362;33;32526;-83
2022/12/14 13:54:21;;;;;;;26.45;12.93;;;;;;;-0.69;94.79;99617.84;5351797;33;33580;-83
2022/12/14 13:57:25;;;;;;;24.12;12.00;;;;;;;-0.93;96.88;99610.94;5351676;33;34283;-84
2022/12/14 14:00:43;;;;;;;25.55;11.98;;;;;;;-0.82;96.28;99602.16;5346117;33;33942;-84
2022/12/14 14:03:48;;;;;;;25.60;11.77;;;;;;;-0.80;96.72;99602.00;5330582;33;32429;-83
2022/12/14 14:06:55;;;;;;;25.88;12.68;;;;;;;-0.76;96.84;99595.50;5346641;33;33641;-84
2022/12/14 14:10:03;;;;;;;24.30;11.85;;;;;;;-0.81;97.51;99590.59;5357723;33;32393;-83
2022/12/14 14:13:28;;;;;;;24.60;12.23;;;;;;;-0.86;98.14;99579.56;5370130;33;32530;-83
2022/12/14 14:16:43;;;;;;;33.45;13.75;;;;;;;-0.90;98.54;99587.88;5357124;33;32180;-83
2022/12/14 14:19:48;;;;;;;25.88;12.00;;;;;;;-1.02;98.04;99589.72;5349594;33;33608;-83
2022/12/14 14:23:13;;;;;;;26.00;12.50;;;;;;;-0.99;98.59;99586.81;5362941;33;33460;-83
2022/12/14 14:26:21;;;;;;;25.80;12.02;;;;;;;-1.01;98.79;99586.09;5355276;33;34165;-83
2022/12/14 14:29:29;;;;;;;29.12;11.70;;;;;;;-1.10;100.00;99576.28;5349585;33;34157;-83
2022/12/14 14:32:36;;;;;;;23.62;11.57;;;;;;;-1.23;100.00;99577.25;5357902;33;33691;-84
2022/12/14 14:35:39;;;;;;;27.08;12.20;;;;;;;-1.11;99.71;99571.94;5351515;33;33713;-84
2022/12/14 14:38:42;;;;;;;25.00;11.27;;;;;;;-1.27;100.00;99562.59;5353867;33;34681;-85
2022/12/14 14:41:50;;;;;;;29.02;12.35;;;;;;;-1.27;100.00;99559.97;5352669;33;34311;-85
2022/12/14 14:45:00;;;;;;;29.17;12.73;;;;;;;-1.43;100.00;99557.72;5344591;33;33633;-85
2022/12/14 14:48:21;;;;;;;29.70;13.15;;;;;;;-1.48;100.00;99559.87;5344065;33;32290;-88
2022/12/14 14:51:34;;;;;;;22.27;12.77;;;;;;;-1.44;100.00;99555.19;5334430;33;32386;-84
2022/12/14 14:54:37;;;;;;;23.65;12.23;;;;;;;-1.46;100.00;99559.75;5346745;33;33862;-84
2022/12/14 14:58:07;;;;;;;25.45;11.20;;;;;;;-1.44;100.00;99566.56;5351907;33;34290;-83
2022/12/14 15:01:21;;;;;;;27.48;12.95;;;;;;;-1.47;100.00;99566.81;5350496;33;34610;-83
2022/12/14 15:04:47;;;;;;;27.15;13.13;;;;;;;-1.46;100.00;99578.25;5352794;33;34043;-84
2022/12/14 15:07:54;;;;;;;27.58;12.90;;;;;;;-1.50;100.00;99567.06;5343832;33;34145;-83
2022/12/14 15:10:59;;;;;;;31.45;12.50;;;;;;;-1.42;100.00;99567.31;5349058;33;33943;-83
2022/12/14 15:14:35;;;;;;;27.98;13.93;;;;;;;-1.29;100.00;99572.44;5369261;33;33588;-84
2022/12/14 15:17:37;;;;;;;28.87;13.38;;;;;;;-1.45;100.00;99566.72;5352716;33;33966;-84
2022/12/14 15:20:46;;;;;;;30.35;13.70;;;;;;;-1.52;100.00;99570.78;5361449;33;34385;-84
2022/12/14 15:23:52;;;;;;;29.20;13.38;;;;;;;-1.50;100.00;99560.94;5349499;33;33970;-87
2022/12/14 15:26:55;;;;;;;33.05;14.85;;;;;;;-1.46;100.00;99559.75;5351730;33;34438;-88
2022/12/14 15:30:04;;;;;;;28.35;13.73;;;;;;;-1.64;100.00;99552.34;5360339;33;34347;-89
2022/12/14 15:33:15;;;;;;;32.20;13.73;;;;;;;-1.57;100.00;99552.69;5359802;33;34319;-85
2022/12/14 15:36:27;;;;;;;27.50;13.80;;;;;;;-1.54;100.00;99543.69;5357818;33;33805;-84
2022/12/14 15:39:38;;;;;;;28.50;13.85;;;;;;;-1.50;100.00;99542.47;5342438;33;34659;-83
2022/12/14 15:42:50;;;;;;;26.25;12.88;;;;;;;-1.51;100.00;99549.56;5343494;33;33893;-84
2022/12/14 15:45:57;;;;;;;29.77;13.48;;;;;;;-1.55;100.00;99558.69;5343640;33;34135;-86
2022/12/14 15:49:09;;;;;;;27.00;12.90;;;;;;;-1.61;100.00;99551.22;5342788;33;32510;-87
2022/12/14 15:52:12;;;;;;;33.58;15.70;;;;;;;-1.58;100.00;99547.50;5343665;33;34135;-85
2022/12/14 15:55:35;;;;;;;28.02;14.23;;;;;;;-1.64;100.00;99554.97;5341660;33;33994;-87
2022/12/14 15:58:39;;;;;;;29.75;13.23;;;;;;;-1.51;100.00;99556.63;5342525;33;34005;-85
2022/12/14 16:01:45;;;;;;;31.10;14.63;;;;;;;-1.49;100.00;99571.41;5361521;33;35371;-85
2022/12/14 16:05:01;;;;;;;30.37;14.93;;;;;;;-1.55;100.00;99560.47;5353115;33;33138;-85
2022/12/14 16:08:05;;;;;;;25.77;12.95;;;;;;;-1.49;100.00;99554.69;5357888;33;32856;-87
2022/12/14 16:11:18;;;;;;;29.27;14.18;;;;;;;-1.68;100.00;99545.59;5362306;33;34375;-85
2022/12/14 16:14:52;;;;;;;28.58;15.05;;;;;;;-1.60;100.00;99540.56;5363367;33;34181;-84
2022/12/14 16:17:57;;;;;;;27.92;14.18;;;;;;;-1.63;100.00;99527.63;5344585;33;33493;-85
2022/12/14 16:21:04;;;;;;;29.70;15.02;;;;;;;-1.61;100.00;99522.19;5362698;33;34408;-85
2022/12/14 16:24:22;;;;;;;27.58;13.98;;;;;;;-1.58;100.00;99506.13;5348830;33;32962;-84
2022/12/14 16:27:26;;;;;;;27.62;13.75;;;;;;;-1.58;100.00;99507.91;5360303;33;34043;-84
2022/12/14 16:30:32;;;;;;;30.10;12.77;;;;;;;-1.45;100.00;99504.19;5363822;33;33707;-84
2022/12/14 16:33:36;;;;;;;28.02;14.02;;;;;;;-1.54;100.00;99502.28;5361238;33;34347;-84
2022/12/14 16:36:39;;;;;;;32.58;15.50;;;;;;;-1.52;100.00;99488.94;5350163;33;34948;-84
2022/12/14 16:39:46;;;;;;;28.65;14.32;;;;;;;-1.48;100.00;99471.94;5344805;33;34782;-84
2022/12/14 16:42:50;;;;;;;28.42;14.87;;;;;;;-1.43;100.00;99464.50;5331070;33;32556;-84
2022/12/14 16:46:01;;;;;;;29.42;14.63;;;;;;;-1.55;100.00;99462.81;5336279;33;33249;-84
2022/12/14 16:49:25;;;;;;;31.02;14.45;;;;;;;-1.58;100.00;99470.97;5359542;33;34531;-84
2022/12/14 16:52:33;;;;;;;30.15;14.30;;;;;;;-1.59;100.00;99470.13;5339374;33;32538;-84
2022/12/14 16:55:58;;;;;;;28.33;13.23;;;;;;;-1.57;100.00;99473.50;5358336;33;34059;-84
2022/12/14 16:59:05;;;;;;;29.90;14.55;;;;;;;-1.60;100.00;99469.31;5361464;33;33569;-84
2022/12/14 17:02:25;;;;;;;27.95;13.15;;;;;;;-1.55;100.00;99476.00;5347409;33;33835;-85
2022/12/14 17:05:34;;;;;;;28.80;13.73;;;;;;;-1.46;100.00;99473.50;5355583;33;33600;-88
2022/12/14 17:08:37;;;;;;;29.05;13.75;;;;;;;-1.40;100.00;99475.63;5351184;33;33815;-89
2022/12/14 17:11:40;;;;;;;27.50;13.90;;;;;;;-1.44;100.00;99463.62;5363299;33;33969;-86
